Time;durP1;ratioP1;P1;durP2;ratioP2;P2;SDS_P1;SDS_P2;PMS_P1;PMS_P2;Temp;Humidity;BMP_temperature;BMP_pressure;BME280_temperature;BME280_humidity;BME280_pressure;Samples;Min_cycle;Max_cycle;Signal;HPM_P1;HPM_P2
2022/11/28 00:01:26;;;;;;;8.52;5.13;;;;;;;6.42;100.00;100818.84;5098202;28;20034;-84
2022/11/28 00:03:52;;;;;;;8.23;4.30;;;;;;;6.41;100.00;100817.19;5116330;28;20036;-84
2022/11/28 00:06:18;;;;;;;10.10;4.53;;;;;;;6.45;100.00;100815.78;5081145;28;20039;-84
2022/11/28 00:08:44;;;;;;;6.60;4.13;;;;;;;6.44;100.00;100806.00;5115234;28;20062;-84
2022/11/28 00:11:12;;;;;;;7.78;4.60;;;;;;;6.52;100.00;100810.44;5114203;28;20034;-84
2022/11/28 00:13:38;;;;;;;7.43;4.60;;;;;;;6.55;100.00;100817.34;5116110;28;20037;-84
2022/11/28 00:16:06;;;;;;;8.38;4.50;;;;;;;6.57;100.00;100815.28;5114863;28;20036;-84
2022/11/28 00:18:32;;;;;;;8.40;4.50;;;;;;;6.59;100.00;100810.53;5114766;28;20047;-84
2022/11/28 00:21:00;;;;;;;8.88;4.20;;;;;;;6.64;100.00;100806.25;5097670;28;20051;-84
2022/11/28 00:23:25;;;;;;;5.20;3.50;;;;;;;6.72;100.00;100810.69;5114683;28;20042;-84
2022/11/28 00:25:58;;;;;;;7.50;4.10;;;;;;;6.83;100.00;100801.25;5114518;28;20039;-84
2022/11/28 00:28:24;;;;;;;5.38;3.65;;;;;;;6.96;100.00;100798.69;5114533;28;20118;-84
2022/11/28 00:30:49;;;;;;;6.03;2.80;;;;;;;7.04;100.00;100795.00;5114344;28;20474;-84
2022/11/28 00:33:14;;;;;;;6.43;3.50;;;;;;;7.06;100.00;100795.66;5097687;28;20122;-84
2022/11/28 00:35:40;;;;;;;5.67;3.00;;;;;;;7.12;100.00;100794.06;5115289;28;20040;-84
2022/11/28 00:38:05;;;;;;;4.37;3.00;;;;;;;7.16;100.00;100787.22;5097069;28;20042;-84
2022/11/28 00:40:31;;;;;;;6.88;3.20;;;;;;;7.23;100.00;100798.09;5113381;28;20777;-84
2022/11/28 00:42:56;;;;;;;6.00;3.20;;;;;;;7.22;100.00;100788.31;5115226;28;20028;-84
2022/11/28 00:45:21;;;;;;;8.20;3.10;;;;;;;7.25;100.00;100793.31;5097653;28;20032;-84
2022/11/28 00:47:48;;;;;;;5.80;3.10;;;;;;;7.24;100.00;100784.41;5097190;28;20479;-84
2022/11/28 00:50:14;;;;;;;5.78;3.00;;;;;;;7.23;100.00;100784.59;5113901;28;20062;-84
2022/11/28 00:52:39;;;;;;;4.22;2.72;;;;;;;7.22;100.00;100789.19;5113979;28;20100;-84
2022/11/28 00:55:05;;;;;;;10.53;3.10;;;;;;;7.25;100.00;100786.09;5096701;28;20430;-84
2022/11/28 00:57:30;;;;;;;9.15;3.30;;;;;;;7.23;100.00;100779.22;5114007;28;20479;-84
2022/11/28 00:59:56;;;;;;;8.20;3.27;;;;;;;7.24;100.00;100786.28;5080018;28;20518;-84
2022/11/28 01:02:21;;;;;;;5.23;2.97;;;;;;;7.23;100.00;100784.59;5113892;28;20467;-84
2022/11/28 01:04:47;;;;;;;6.17;3.00;;;;;;;7.21;100.00;100779.41;5097115;28;20077;-83
2022/11/28 01:07:12;;;;;;;7.10;3.53;;;;;;;7.20;100.00;100783.97;5114126;28;20463;-84
2022/11/28 01:09:37;;;;;;;5.83;3.40;;;;;;;7.20;100.00;100788.50;5113022;28;20130;-84
2022/11/28 01:12:03;;;;;;;5.93;3.67;;;;;;;7.10;100.00;100785.31;5096216;28;20130;-84
2022/11/28 01:14:29;;;;;;;5.07;3.45;;;;;;;7.01;100.00;100785.47;5079843;28;20027;-84
2022/11/28 01:16:57;;;;;;;4.40;3.03;;;;;;;6.95;100.00;100782.69;5096723;28;20027;-84
2022/11/28 01:19:22;;;;;;;7.57;3.75;;;;;;;6.91;100.00;100784.94;5113513;28;20028;-85
2022/11/28 01:21:48;;;;;;;5.67;3.40;;;;;;;6.91;100.00;100778.69;5113299;28;20480;-84
2022/11/28 01:24:14;;;;;;;6.38;3.00;;;;;;;6.92;100.00;100780.38;5113392;28;20032;-84
2022/11/28 01:26:40;;;;;;;7.53;3.53;;;;;;;6.96;100.00;100781.69;5113472;28;20030;-84
2022/11/28 01:29:05;;;;;;;6.37;3.00;;;;;;;6.98;100.00;100785.84;5113319;28;20024;-84
2022/11/28 01:31:31;;;;;;;5.25;3.20;;;;;;;7.02;100.00;100787.13;5113135;28;20049;-84
2022/11/28 01:33:57;;;;;;;4.80;3.00;;;;;;;7.02;100.00;100787.13;5113244;28;20027;-85
2022/11/28 01:36:24;;;;;;;4.88;3.00;;;;;;;7.00;100.00;100778.41;5114076;28;20448;-84
2022/11/28 01:38:50;;;;;;;5.30;2.97;;;;;;;6.96;100.00;100792.47;5113234;28;20037;-84
2022/11/28 01:41:18;;;;;;;7.77;2.93;;;;;;;6.94;100.00;100779.16;5112669;28;20027;-84
2022/11/28 01:43:58;;;;;;;4.43;2.53;;;;;;;6.83;100.00;100783.19;5113223;28;20062;-85
2022/11/28 01:46:23;;;;;;;4.15;3.10;;;;;;;6.75;100.00;100791.44;5113165;28;20027;-85
2022/11/28 01:48:50;;;;;;;5.70;3.03;;;;;;;6.66;100.00;100787.19;5096090;28;20457;-85
2022/11/28 01:51:16;;;;;;;7.75;3.53;;;;;;;6.58;100.00;100777.34;5095996;28;20048;-85
2022/11/28 01:53:44;;;;;;;6.82;3.45;;;;;;;6.54;100.00;100786.00;5113027;28;20027;-85
2022/11/28 01:56:25;;;;;;;6.40;3.20;;;;;;;6.47;100.00;100776.00;5112962;28;20024;-85
2022/11/28 01:58:55;;;;;;;7.63;3.60;;;;;;;6.45;100.00;100775.34;5112617;28;20055;-85
2022/11/28 02:01:23;;;;;;;6.00;3.80;;;;;;;6.44;100.00;100778.25;5112931;28;20057;-85
2022/11/28 02:03:49;;;;;;;8.50;3.50;;;;;;;6.41;100.00;100776.75;5112878;28;20456;-85
2022/11/28 02:06:21;;;;;;;6.40;3.20;;;;;;;6.43;100.00;100776.56;5112929;28;20049;-85
2022/11/28 02:08:51;;;;;;;7.68;3.22;;;;;;;6.37;100.00;100769.25;5112959;28;20494;-85
2022/11/28 02:11:31;;;;;;;5.63;3.40;;;;;;;6.38;100.00;100770.88;5112501;28;20368;-85
2022/11/28 02:14:15;;;;;;;8.43;3.25;;;;;;;6.37;100.00;100763.84;5112471;28;20062;-85
2022/11/28 02:17:07;;;;;;;9.00;3.63;;;;;;;6.30;100.00;100761.91;5114327;28;20032;-85
2022/11/28 02:20:05;;;;;;;7.20;3.40;;;;;;;6.34;100.00;100761.53;5113034;28;20479;-85
2022/11/28 02:22:33;;;;;;;5.72;3.65;;;;;;;6.34;100.00;100756.16;5090291;28;20035;-85
2022/11/28 02:25:32;;;;;;;5.28;3.30;;;;;;;6.29;100.00;100762.09;5112620;28;20031;-85
2022/11/28 02:28:22;;;;;;;5.53;3.22;;;;;;;6.29;100.00;100762.94;5112629;28;20038;-84
2022/11/28 02:31:29;;;;;;;6.67;3.13;;;;;;;6.30;100.00;100766.44;5112519;28;20055;-85
2022/11/28 02:33:58;;;;;;;6.68;3.20;;;;;;;6.31;100.00;100763.56;5112384;28;20023;-85
2022/11/28 02:36:46;;;;;;;4.95;3.20;;;;;;;6.25;100.00;100752.72;5114245;28;20085;-85
2022/11/28 02:39:30;;;;;;;4.85;3.15;;;;;;;6.24;100.00;100756.44;5112284;28;20081;-85
2022/11/28 02:42:10;;;;;;;6.55;2.80;;;;;;;6.22;100.00;100759.31;5112074;28;20459;-85
2022/11/28 02:44:53;;;;;;;4.93;2.93;;;;;;;6.20;100.00;100760.53;5112690;28;20031;-85
2022/11/28 02:47:31;;;;;;;5.57;2.40;;;;;;;6.20;100.00;100752.44;5112582;28;20539;-84
2022/11/28 02:50:14;;;;;;;6.93;3.50;;;;;;;6.19;100.00;100757.00;5112271;28;20027;-85
2022/11/28 02:52:50;;;;;;;5.40;3.33;;;;;;;6.17;100.00;100761.75;5112514;28;20432;-84
2022/11/28 02:55:17;;;;;;;8.60;3.40;;;;;;;6.15;100.00;100756.53;5113847;28;20475;-84
2022/11/28 02:57:49;;;;;;;4.53;3.17;;;;;;;6.14;100.00;100749.50;5112414;28;20028;-84
2022/11/28 03:00:33;;;;;;;5.40;2.97;;;;;;;6.15;100.00;100756.53;5112397;28;20024;-84
2022/11/28 03:03:20;;;;;;;7.40;3.35;;;;;;;6.14;100.00;100751.34;5113355;28;20468;-84
2022/11/28 03:05:54;;;;;;;7.85;3.70;;;;;;;6.13;100.00;100738.91;5112357;28;20031;-84
2022/11/28 03:08:35;;;;;;;8.38;3.83;;;;;;;6.14;100.00;100745.94;5112568;28;20122;-84
2022/11/28 03:11:42;;;;;;;3.60;2.73;;;;;;;6.15;100.00;100744.94;5116385;28;20045;-84
2022/11/28 03:14:28;;;;;;;5.60;3.30;;;;;;;6.14;100.00;100730.63;5078586;28;20123;-84
2022/11/28 03:17:17;;;;;;;5.72;3.30;;;;;;;6.15;100.00;100739.53;5116021;28;20043;-84
2022/11/28 03:19:55;;;;;;;7.20;3.50;;;;;;;6.10;100.00;100729.34;5115470;28;20483;-84
2022/11/28 03:22:40;;;;;;;7.88;2.92;;;;;;;6.10;100.00;100734.72;5116038;28;20588;-84
2022/11/28 03:25:21;;;;;;;6.30;3.30;;;;;;;6.13;100.00;100737.03;5116049;28;20126;-84
2022/11/28 03:27:55;;;;;;;7.32;3.63;;;;;;;6.14;100.00;100737.88;5115761;28;20034;-84
2022/11/28 03:30:32;;;;;;;9.02;3.30;;;;;;;6.12;100.00;100731.84;5115863;28;20097;-83
2022/11/28 03:33:00;;;;;;;5.38;3.17;;;;;;;6.13;100.00;100733.53;5116704;28;20034;-84
2022/11/28 03:35:30;;;;;;;6.10;3.17;;;;;;;6.17;100.00;100742.03;5115668;28;20035;-84
2022/11/28 03:38:26;;;;;;;7.53;3.03;;;;;;;6.17;100.00;100742.03;5115449;28;20039;-85
2022/11/28 03:40:56;;;;;;;8.00;3.78;;;;;;;6.18;100.00;100739.16;5109183;28;20051;-84
2022/11/28 03:43:29;;;;;;;10.95;4.47;;;;;;;6.19;100.00;100734.63;5115925;28;20038;-84
2022/11/28 03:46:01;;;;;;;6.95;3.15;;;;;;;6.18;100.00;100730.25;5115427;28;20035;-84
2022/11/28 03:48:31;;;;;;;5.82;3.45;;;;;;;6.19;100.00;100729.25;5115379;28;20463;-84
2022/11/28 03:51:25;;;;;;;6.97;3.50;;;;;;;6.21;100.00;100735.25;5115005;28;20040;-84
2022/11/28 03:54:12;;;;;;;6.78;3.42;;;;;;;6.19;100.00;100729.25;5115352;28;20024;-84
2022/11/28 03:56:52;;;;;;;6.57;3.30;;;;;;;6.18;100.00;100739.16;5114891;28;20028;-84
2022/11/28 03:59:24;;;;;;;11.48;3.47;;;;;;;6.14;100.00;100729.78;5115091;28;20072;-83
2022/11/28 04:02:08;;;;;;;10.10;3.28;;;;;;;6.15;100.00;100731.47;5115118;28;20027;-84
2022/11/28 04:05:27;;;;;;;5.27;3.07;;;;;;;6.15;100.00;100732.28;5114993;28;20511;-84
2022/11/28 04:08:01;;;;;;;5.60;3.25;;;;;;;6.17;100.00;100732.13;5033237;28;20042;-84
2022/11/28 04:10:34;;;;;;;5.18;2.90;;;;;;;6.17;100.00;100742.03;5113709;28;20464;-84
2022/11/28 04:13:18;;;;;;;6.68;3.03;;;;;;;6.17;100.00;100742.03;5114730;28;20039;-84
2022/11/28 04:15:52;;;;;;;6.18;3.65;;;;;;;6.16;100.00;100743.91;5115015;28;20035;-84
2022/11/28 04:18:41;;;;;;;6.80;4.00;;;;;;;6.15;100.00;100732.28;5114925;28;20066;-84
2022/11/28 04:21:17;;;;;;;5.28;3.40;;;;;;;6.17;100.00;100737.50;5114434;28;20468;-84
2022/11/28 04:23:45;;;;;;;7.25;4.05;;;;;;;6.18;100.00;100746.41;5114635;28;20494;-84
2022/11/28 04:26:19;;;;;;;7.80;4.38;;;;;;;6.17;100.00;100733.97;5114657;28;20027;-84
2022/11/28 04:28:47;;;;;;;11.35;4.50;;;;;;;6.17;100.00;100748.28;5114765;28;20031;-84
2022/11/28 04:31:16;;;;;;;8.20;3.83;;;;;;;6.16;100.00;100743.91;5115664;27;20464;-84
2022/11/28 04:33:47;;;;;;;6.97;3.70;;;;;;;6.18;100.00;100738.34;5115445;28;20026;-84
2022/11/28 04:36:16;;;;;;;8.52;4.60;;;;;;;6.18;100.00;100738.34;5114439;28;20036;-84
2022/11/28 04:38:47;;;;;;;6.43;4.13;;;;;;;6.16;100.00;100741.22;5114325;28;20112;-84
2022/11/28 04:41:22;;;;;;;9.75;4.57;;;;;;;6.17;100.00;100745.59;5114389;28;20034;-85
2022/11/28 04:43:52;;;;;;;6.23;3.43;;;;;;;6.21;100.00;100732.56;5115282;28;20027;-84
2022/11/28 04:46:23;;;;;;;6.80;4.05;;;;;;;6.16;100.00;100741.22;5114321;28;20092;-84
2022/11/28 04:48:49;;;;;;;9.38;4.63;;;;;;;6.22;100.00;100745.03;5115417;28;20020;-84
2022/11/28 04:51:27;;;;;;;9.70;4.47;;;;;;;6.20;100.00;100749.75;5096799;28;20074;-84
2022/11/28 04:54:05;;;;;;;7.35;4.28;;;;;;;6.18;100.00;100736.47;5113784;28;20085;-84
2022/11/28 04:56:39;;;;;;;9.00;4.65;;;;;;;6.21;100.00;100736.09;5114015;28;20126;-84
2022/11/28 04:59:06;;;;;;;6.53;4.30;;;;;;;6.20;100.00;100741.66;5114009;28;20475;-84
2022/11/28 05:01:36;;;;;;;9.52;4.93;;;;;;;6.19;100.00;100740.00;5113911;28;20116;-84
2022/11/28 05:04:02;;;;;;;9.13;4.82;;;;;;;6.20;100.00;100742.53;5114102;28;20028;-84
2022/11/28 05:06:34;;;;;;;9.35;4.80;;;;;;;6.25;100.00;100745.47;5114430;28;20038;-85
2022/11/28 05:08:59;;;;;;;9.15;5.15;;;;;;;6.22;100.00;100747.72;5115006;28;20102;-85
2022/11/28 05:11:25;;;;;;;8.03;5.47;;;;;;;6.24;100.00;100742.97;5113003;28;20047;-84
2022/11/28 05:13:51;;;;;;;10.90;5.45;;;;;;;6.24;100.00;100742.97;5096422;28;20046;-84
2022/11/28 05:16:17;;;;;;;9.65;5.57;;;;;;;6.22;100.00;100745.84;5096690;28;20043;-84
2022/11/28 05:18:42;;;;;;;12.17;5.97;;;;;;;6.22;100.00;100747.72;5096905;28;20027;-84
2022/11/28 05:21:08;;;;;;;10.70;6.10;;;;;;;6.24;100.00;100753.75;5113531;28;20042;-84
2022/11/28 05:23:38;;;;;;;9.00;6.00;;;;;;;6.24;100.00;100748.34;5113482;28;20028;-84
2022/11/28 05:26:06;;;;;;;10.13;6.00;;;;;;;6.22;100.00;100740.47;5113398;28;20027;-84
2022/11/28 05:28:32;;;;;;;10.35;6.05;;;;;;;6.25;100.00;100755.41;5113153;28;20027;-84
2022/11/28 05:30:58;;;;;;;10.55;6.18;;;;;;;6.26;100.00;100757.94;5095936;28;20497;-84
2022/11/28 05:33:23;;;;;;;10.85;6.68;;;;;;;6.26;100.00;100752.53;5112315;28;20027;-84
2022/11/28 05:35:52;;;;;;;11.60;6.65;;;;;;;6.27;100.00;100750.66;5113450;28;20020;-84
2022/11/28 05:38:17;;;;;;;10.85;6.15;;;;;;;6.28;100.00;100755.03;5096643;28;20035;-84
2022/11/28 05:40:43;;;;;;;12.95;6.63;;;;;;;6.28;100.00;100755.88;5096576;28;20031;-85
2022/11/28 05:43:12;;;;;;;9.55;6.63;;;;;;;6.30;100.00;100764.63;5079426;28;20042;-85
2022/11/28 05:45:44;;;;;;;10.70;6.85;;;;;;;6.28;100.00;100760.44;5112723;28;20452;-84
2022/11/28 05:48:12;;;;;;;10.55;6.63;;;;;;;6.30;100.00;100761.91;5114351;28;20042;-85
2022/11/28 05:50:39;;;;;;;12.80;7.33;;;;;;;6.33;100.00;100768.75;5095584;28;20056;-84
2022/11/28 05:53:06;;;;;;;11.85;6.70;;;;;;;6.33;100.00;100757.97;5113954;28;20055;-84
2022/11/28 05:55:32;;;;;;;12.48;7.50;;;;;;;6.32;100.00;100757.16;5095608;28;20035;-83
2022/11/28 05:57:57;;;;;;;12.13;7.57;;;;;;;6.34;100.00;100759.66;5096058;28;20042;-84
2022/11/28 06:00:25;;;;;;;12.85;7.95;;;;;;;6.34;100.00;100756.16;5095905;28;20088;-84
2022/11/28 06:02:51;;;;;;;13.20;7.57;;;;;;;6.32;100.00;100754.47;5096221;28;20028;-84
2022/11/28 06:05:16;;;;;;;12.82;7.60;;;;;;;6.34;100.00;100756.16;5095844;28;20472;-84
2022/11/28 06:07:41;;;;;;;11.82;6.88;;;;;;;6.36;100.00;100751.38;5112567;28;20024;-83
2022/11/28 06:10:07;;;;;;;12.37;7.53;;;;;;;6.35;100.00;100750.56;5095575;28;20028;-84
2022/11/28 06:12:33;;;;;;;13.35;7.40;;;;;;;6.36;100.00;100754.91;5095314;28;20543;-84
2022/11/28 06:14:59;;;;;;;13.63;7.65;;;;;;;6.37;100.00;100767.38;5095860;28;20070;-84
2022/11/28 06:17:24;;;;;;;13.80;8.10;;;;;;;6.35;100.00;100761.34;5095866;28;20067;-84
2022/11/28 06:19:49;;;;;;;13.13;7.75;;;;;;;6.33;100.00;100763.38;5112530;28;20498;-84
2022/11/28 06:22:15;;;;;;;13.53;8.13;;;;;;;6.35;100.00;100761.34;5095915;28;20076;-83
2022/11/28 06:24:40;;;;;;;19.73;8.20;;;;;;;6.39;100.00;100776.13;5112872;28;20024;-84
2022/11/28 06:27:06;;;;;;;14.23;7.80;;;;;;;6.38;100.00;100769.03;5112187;28;20463;-86
2022/11/28 06:29:31;;;;;;;15.17;8.23;;;;;;;6.39;100.00;100776.13;5112086;28;20016;-85
2022/11/28 06:31:57;;;;;;;14.57;8.10;;;;;;;6.39;100.00;100777.97;5078767;28;20293;-86
2022/11/28 06:34:23;;;;;;;16.17;8.47;;;;;;;6.39;100.00;100776.13;5095626;28;20032;-86
2022/11/28 06:36:48;;;;;;;13.85;7.68;;;;;;;6.40;100.00;100772.38;5113647;28;20023;-86
2022/11/28 06:39:15;;;;;;;15.13;8.07;;;;;;;6.40;100.00;100775.06;5112833;28;20394;-83
2022/11/28 06:41:42;;;;;;;13.10;8.02;;;;;;;6.41;100.00;100779.44;5095024;28;20459;-83
2022/11/28 06:44:11;;;;;;;16.88;9.00;;;;;;;6.43;100.00;100780.06;5097635;28;20471;-84
2022/11/28 06:46:36;;;;;;;15.03;8.30;;;;;;;6.43;100.00;100779.25;5116464;28;20028;-84
2022/11/28 06:49:02;;;;;;;16.10;8.50;;;;;;;6.42;100.00;100777.56;5099188;28;20035;-84
2022/11/28 06:51:28;;;;;;;16.30;8.60;;;;;;;6.40;100.00;100768.84;5082460;28;20060;-83
2022/11/28 06:53:56;;;;;;;16.63;8.63;;;;;;;6.42;100.00;100781.13;5116306;28;20039;-84
2022/11/28 06:56:22;;;;;;;14.63;8.57;;;;;;;6.42;100.00;100773.03;5099081;28;20040;-83
2022/11/28 06:58:53;;;;;;;14.70;9.00;;;;;;;6.41;100.00;100774.06;5117258;28;20038;-83
2022/11/28 07:01:24;;;;;;;15.05;8.70;;;;;;;6.43;100.00;100787.34;5117527;28;20077;-83
2022/11/28 07:03:50;;;;;;;17.10;8.65;;;;;;;6.42;100.00;100782.97;5116103;28;20038;-83
2022/11/28 07:06:18;;;;;;;16.38;9.07;;;;;;;6.42;100.00;100775.72;5115914;28;20028;-83
2022/11/28 07:08:45;;;;;;;15.37;8.83;;;;;;;6.44;100.00;100779.06;5116814;28;20042;-83
2022/11/28 07:11:22;;;;;;;16.30;8.80;;;;;;;6.44;100.00;100784.44;5115301;28;20028;-84
2022/11/28 07:13:49;;;;;;;18.33;9.02;;;;;;;6.46;100.00;100792.34;5116876;28;20375;-84
2022/11/28 07:16:26;;;;;;;21.38;9.38;;;;;;;6.45;100.00;100793.38;5098053;28;20134;-83
2022/11/28 07:18:55;;;;;;;16.95;8.80;;;;;;;6.45;100.00;100791.53;5115319;28;20032;-84
2022/11/28 07:21:21;;;;;;;16.37;8.50;;;;;;;6.43;100.00;100776.56;5116644;27;20031;-84
2022/11/28 07:23:47;;;;;;;16.45;9.23;;;;;;;6.45;100.00;100788.81;5115439;28;20028;-84
2022/11/28 07:26:14;;;;;;;20.13;8.63;;;;;;;6.46;100.00;100786.97;5098103;28;20031;-84
2022/11/28 07:28:43;;;;;;;16.75;8.75;;;;;;;6.45;100.00;100790.66;5115364;28;20035;-84
2022/11/28 07:31:16;;;;;;;18.75;8.70;;;;;;;6.47;100.00;100785.94;5098402;28;20031;-84
2022/11/28 07:33:43;;;;;;;20.10;9.85;;;;;;;6.51;100.00;100795.31;5115538;28;20031;-83
2022/11/28 07:36:13;;;;;;;18.25;9.98;;;;;;;6.53;100.00;100800.53;5115318;28;20049;-83
2022/11/28 07:38:38;;;;;;;17.75;9.60;;;;;;;6.54;100.00;100799.47;5116859;28;20051;-83
2022/11/28 07:41:10;;;;;;;21.83;9.83;;;;;;;6.55;100.00;100806.56;5097893;28;20463;-84
2022/11/28 07:43:35;;;;;;;20.65;8.88;;;;;;;6.55;100.00;100807.38;5116280;28;20031;-83
2022/11/28 07:46:10;;;;;;;19.53;9.33;;;;;;;6.55;100.00;100801.16;5115476;28;20036;-84
2022/11/28 07:48:35;;;;;;;19.60;10.07;;;;;;;6.58;100.00;100804.28;5115350;28;20479;-84
2022/11/28 07:51:12;;;;;;;19.30;9.70;;;;;;;6.59;100.00;100811.38;5114190;28;20088;-83
2022/11/28 07:53:39;;;;;;;20.65;9.57;;;;;;;6.60;100.00;100817.59;5115875;28;20063;-84
2022/11/28 07:56:07;;;;;;;19.38;9.40;;;;;;;6.62;100.00;100816.38;5096757;28;20035;-83
2022/11/28 07:58:34;;;;;;;18.20;8.85;;;;;;;6.61;100.00;100819.25;5114604;28;20027;-84
2022/11/28 08:01:06;;;;;;;18.63;8.93;;;;;;;6.60;100.00;100815.75;5115647;27;20073;-84
2022/11/28 08:03:32;;;;;;;18.88;8.80;;;;;;;6.61;100.00;100824.66;5114969;28;20084;-84
2022/11/28 08:06:01;;;;;;;20.83;9.20;;;;;;;6.62;100.00;100820.94;5115095;28;20024;-83
2022/11/28 08:08:26;;;;;;;21.58;9.70;;;;;;;6.64;100.00;100824.28;5114909;28;20031;-83
2022/11/28 08:10:56;;;;;;;19.53;8.80;;;;;;;6.67;100.00;100824.75;5096853;28;20069;-87
2022/11/28 08:13:22;;;;;;;21.52;9.77;;;;;;;6.68;100.00;100825.56;5098392;28;20028;-83
2022/11/28 08:15:47;;;;;;;21.70;10.10;;;;;;;6.71;100.00;100821.66;5116028;28;20441;-83
2022/11/28 08:18:13;;;;;;;20.20;9.87;;;;;;;6.73;100.00;100827.69;5097620;28;20038;-83
2022/11/28 08:20:38;;;;;;;23.65;9.63;;;;;;;6.72;100.00;100828.72;5080633;28;20027;-84
2022/11/28 08:23:04;;;;;;;25.27;10.17;;;;;;;6.77;100.00;100835.22;5115603;28;20035;-84
2022/11/28 08:25:29;;;;;;;25.70;10.40;;;;;;;6.78;100.00;100836.88;5100310;28;20490;-83
2022/11/28 08:27:54;;;;;;;25.43;10.17;;;;;;;6.82;100.00;100834.63;5110371;28;20457;-83
2022/11/28 08:30:20;;;;;;;23.33;10.60;;;;;;;6.85;100.00;100829.72;5114620;28;20278;-84
2022/11/28 08:32:45;;;;;;;26.50;11.03;;;;;;;6.85;100.00;100824.31;5112109;28;20063;-83
2022/11/28 08:35:11;;;;;;;28.10;10.70;;;;;;;6.88;100.00;100833.03;5114092;28;20126;-84
2022/11/28 08:37:36;;;;;;;27.20;11.30;;;;;;;6.90;100.00;100839.91;5092195;28;20114;-84
2022/11/28 08:40:02;;;;;;;24.80;10.50;;;;;;;6.90;100.00;100842.63;5094992;28;20019;-84
2022/11/28 08:42:27;;;;;;;29.73;11.33;;;;;;;6.93;100.00;100844.94;5111202;28;20019;-85
2022/11/28 08:44:53;;;;;;;29.58;11.50;;;;;;;6.93;100.00;100844.09;5112132;28;20036;-84
2022/11/28 08:47:18;;;;;;;29.87;11.17;;;;;;;6.93;100.00;100853.00;5076372;28;20028;-84
2022/11/28 08:49:44;;;;;;;29.77;11.23;;;;;;;6.92;100.00;100842.41;5093125;28;20043;-84
2022/11/28 08:52:09;;;;;;;29.63;10.83;;;;;;;6.92;100.00;100843.25;5095207;28;20038;-84
2022/11/28 08:54:34;;;;;;;29.57;11.70;;;;;;;6.91;100.00;100844.28;5088337;28;20112;-84
2022/11/28 08:57:00;;;;;;;25.52;10.55;;;;;;;6.97;100.00;100842.69;5113485;28;20036;-84
2022/11/28 08:59:26;;;;;;;29.27;11.07;;;;;;;6.98;100.00;100841.66;5112006;28;20482;-84
2022/11/28 09:01:53;;;;;;;27.42;10.25;;;;;;;6.98;100.00;100834.41;5096139;28;20035;-83
2022/11/28 09:04:19;;;;;;;30.60;11.07;;;;;;;7.00;100.00;100835.03;5093723;28;20118;-87
2022/11/28 09:06:44;;;;;;;29.15;10.73;;;;;;;7.05;100.00;100845.25;5081275;28;20036;-83
2022/11/28 09:09:10;;;;;;;25.63;10.60;;;;;;;7.07;100.00;100840.53;5076274;28;20066;-82
2022/11/28 09:11:36;;;;;;;24.50;11.03;;;;;;;7.09;100.00;100843.03;5075816;28;20025;-83
2022/11/28 09:14:01;;;;;;;25.35;9.48;;;;;;;7.12;100.00;100858.81;5059655;28;20031;-83
2022/11/28 09:16:27;;;;;;;26.73;10.20;;;;;;;7.11;100.00;100852.56;5079205;28;20065;-83
2022/11/28 09:18:53;;;;;;;31.42;10.70;;;;;;;7.12;100.00;100858.81;5097790;28;20028;-83
2022/11/28 09:21:19;;;;;;;28.77;9.65;;;;;;;7.13;100.00;100857.78;5093186;28;20357;-83
2022/11/28 09:23:44;;;;;;;27.83;10.77;;;;;;;7.12;100.00;100864.22;5076176;28;20135;-83
2022/11/28 09:26:16;;;;;;;28.95;9.98;;;;;;;7.09;100.00;100854.63;5086750;28;20303;-83
2022/11/28 09:28:42;;;;;;;28.40;10.35;;;;;;;7.12;100.00;100864.22;5114414;28;20032;-82
2022/11/28 09:31:08;;;;;;;30.43;10.83;;;;;;;7.14;100.00;100865.69;5096515;28;20039;-83
2022/11/28 09:33:34;;;;;;;26.90;10.07;;;;;;;7.19;100.00;100865.13;5096274;28;20047;-83
2022/11/28 09:36:07;;;;;;;25.92;9.95;;;;;;;7.17;100.00;100859.88;5092232;28;20039;-83
2022/11/28 09:38:33;;;;;;;31.55;10.50;;;;;;;7.25;100.00;100858.94;5108377;28;20038;-83
2022/11/28 09:41:00;;;;;;;25.02;10.30;;;;;;;7.29;100.00;100854.84;5112785;28;20118;-87
2022/11/28 09:43:40;;;;;;;28.50;10.15;;;;;;;7.33;100.00;100861.50;5113261;28;20036;-83
2022/11/28 09:46:12;;;;;;;30.83;9.93;;;;;;;7.33;100.00;100848.00;5111971;28;20066;-84
2022/11/28 09:48:44;;;;;;;29.75;10.73;;;;;;;7.38;100.00;100860.91;5094903;28;20055;-83
2022/11/28 09:51:41;;;;;;;25.58;10.05;;;;;;;7.45;100.00;100867.22;5093569;28;20048;-83
2022/11/28 09:54:24;;;;;;;28.45;10.77;;;;;;;7.43;100.00;100863.88;5100285;28;20087;-84
2022/11/28 09:56:50;;;;;;;26.48;10.88;;;;;;;7.44;100.00;100867.41;5108805;28;20063;-83
2022/11/28 09:59:21;;;;;;;28.87;11.67;;;;;;;7.46;100.00;100873.47;5106828;28;20066;-83
2022/11/28 10:02:09;;;;;;;32.97;11.85;;;;;;;7.47;100.00;100875.13;5109054;28;20032;-82
2022/11/28 10:04:43;;;;;;;33.17;11.23;;;;;;;7.46;100.00;100870.78;5109529;28;20030;-82
2022/11/28 10:07:16;;;;;;;29.58;12.10;;;;;;;7.43;100.00;100871.97;5111676;28;20027;-82
2022/11/28 10:10:07;;;;;;;35.38;13.05;;;;;;;7.48;100.00;100868.69;5111538;28;20421;-82
2022/11/28 10:13:02;;;;;;;32.83;12.55;;;;;;;7.50;100.00;100864.78;5109154;28;20024;-82
2022/11/28 10:15:46;;;;;;;33.05;11.77;;;;;;;7.55;100.00;100870.41;5111185;28;20094;-82
2022/11/28 10:18:39;;;;;;;32.63;12.40;;;;;;;7.62;100.00;100869.63;5108963;28;20127;-82
2022/11/28 10:21:23;;;;;;;30.88;12.20;;;;;;;7.63;100.00;100861.38;5117874;28;20032;-82
2022/11/28 10:23:53;;;;;;;32.42;12.07;;;;;;;7.60;100.00;100867.13;5116146;28;20027;-81
2022/11/28 10:26:24;;;;;;;33.58;12.25;;;;;;;7.62;100.00;100858.81;5113956;28;20028;-82
2022/11/28 10:28:54;;;;;;;34.03;11.63;;;;;;;7.63;100.00;100863.22;5116961;28;20035;-82
2022/11/28 10:31:33;;;;;;;34.92;12.38;;;;;;;7.69;100.00;100865.13;5116617;28;20082;-83
2022/11/28 10:34:10;;;;;;;36.53;13.13;;;;;;;7.72;100.00;100862.03;5118122;28;20027;-83
2022/11/28 10:36:50;;;;;;;36.33;13.40;;;;;;;7.72;100.00;100859.31;5118059;28;20081;-82
2022/11/28 10:39:15;;;;;;;35.45;14.02;;;;;;;7.82;100.00;100861.69;5116394;28;20023;-82
2022/11/28 10:42:13;;;;;;;37.27;13.23;;;;;;;7.88;100.00;100875.25;5099430;28;20046;-82
2022/11/28 10:45:00;;;;;;;37.72;13.32;;;;;;;7.85;100.00;100870.25;5116767;28;20277;-82
2022/11/28 10:47:34;;;;;;;40.88;13.90;;;;;;;7.85;100.00;100880.22;5117444;28;20019;-82
2022/11/28 10:50:20;;;;;;;40.42;13.95;;;;;;;7.82;100.00;100873.31;5116020;28;20042;-82
2022/11/28 10:52:57;;;;;;;40.88;15.35;;;;;;;7.82;100.00;100873.31;5116012;28;20043;-82
2022/11/28 10:56:01;;;;;;;42.63;15.73;;;;;;;7.84;100.00;100883.94;5115925;28;20028;-81
2022/11/28 10:58:36;;;;;;;44.00;15.45;;;;;;;7.86;100.00;100887.28;5116561;28;20120;-81
2022/11/28 11:01:02;;;;;;;42.13;15.68;;;;;;;7.85;100.00;100874.81;5116345;28;20047;-81
2022/11/28 11:03:31;;;;;;;43.50;16.33;;;;;;;7.83;100.00;100883.09;5115991;28;20027;-81
2022/11/28 11:05:58;;;;;;;43.40;15.75;;;;;;;7.82;100.00;100883.31;5117842;28;20043;-81
2022/11/28 11:08:27;;;;;;;45.83;17.20;;;;;;;7.83;100.00;100884.97;5098981;28;20050;-81
2022/11/28 11:11:14;;;;;;;45.65;15.93;;;;;;;7.86;100.00;100885.41;5115727;28;20047;-81
2022/11/28 11:14:00;;;;;;;48.85;17.33;;;;;;;7.83;100.00;100872.31;5099873;28;20089;-82
2022/11/28 11:16:46;;;;;;;51.60;16.70;;;;;;;7.87;100.00;100878.16;5117303;28;20482;-81
2022/11/28 11:19:50;;;;;;;46.20;16.95;;;;;;;7.88;100.00;100871.69;5115993;28;20084;-81
2022/11/28 11:22:28;;;;;;;45.28;16.20;;;;;;;7.93;100.00;100871.09;5034185;28;20046;-82
2022/11/28 11:25:11;;;;;;;54.30;17.77;;;;;;;7.97;100.00;100875.94;5017594;28;20033;-82
2022/11/28 11:27:45;;;;;;;47.72;17.92;;;;;;;7.98;100.00;100874.91;5081505;28;20039;-82
2022/11/28 11:30:28;;;;;;;46.30;17.40;;;;;;;7.98;100.00;100874.06;5114520;28;20023;-82
2022/11/28 11:32:56;;;;;;;50.40;16.85;;;;;;;7.97;100.00;100872.38;5115615;28;20038;-81
2022/11/28 11:35:34;;;;;;;50.88;18.08;;;;;;;7.98;100.00;100871.38;5116799;28;20118;-82
2022/11/28 11:38:31;;;;;;;49.63;17.35;;;;;;;7.97;100.00;100867.84;5098542;28;20053;-81
2022/11/28 11:40:57;;;;;;;56.60;19.00;;;;;;;8.00;100.00;100874.69;5100331;28;20075;-81